x

Half Moon Bay - 24nm Ssw Of San Francisco, Ca (46012) Wave Buoy

12:50pm - Sat 20th Dec 2014 All times are PST. -8 hours from GMT.

  • Sig Wave height 14.8ft
  • Swell Direction
  • Peak Period 17s
  • Average Period 12s
  • Wind
    9mph, 11mph gusts
  • Sea Temp 62°f
  • Air Temp 60°f
  • Sea Pressure 1022.1mb
  • Half Moon Bay - 24nm Ssw Of San Francisco, Ca
  • Half Moon Bay - 24nm Ssw Of San Francisco, Ca

More Historic Weather Station data

Upgrade to MSW Pro to gain access to the past 30 days of data for over 8000 Wavebouys and Weather Stations around the globe.

Join Pro

Comparision Forecast

View Surf forecast
   
Sat 12/20 12:50pm 15ft 17s 12s 9 11 mph 1022.1mb 62f 60f
11:50am 15.5ft 17s 13s 4 7 mph 1022.1mb 62f 60f
10:50am 16.5ft 17s 13s 4 7 mph 1022.9mb 62f 60f
9:50am 17.5ft 17s 13s 4 9 mph 1022.5mb 61f 60f
8:50am 17.5ft 16s 13s 7 11 mph 1021.7mb 61f 60f
7:50am 17ft 16s 13s 7 13 mph 1020.7mb 61f 60f
6:50am 16.5ft 17s 13s 9 13 mph 1020mb 61f 60f
5:50am 16ft 17s 12s 9 13 mph 1019.8mb 61f 60f
4:50am 19ft 16s 13s 11 16 mph 1019.6mb 61f 60f
3:50am 15ft 17s 12s 9 13 mph 1019.7mb 60f 60f
2:50am 15.5ft 17s 12s 9 13 mph 1020.1mb 60f 59f
1:50am 17.5ft 17s 13s 9 13 mph 1019.8mb 60f 59f
12:50am 16.5ft 17s 13s 9 11 mph 1019.7mb 60f 59f
Fri 12/19 11:50pm 14ft 19s 12s 7 9 mph 1020mb 60f 59f
10:50pm 14ft 19s 12s 2 4 mph 1020.3mb 61f 59f
9:50pm 12ft 13s 11s 2 4 mph 1019.9mb 61f 59f
8:50pm 12ft 19s 11s 2 7 mph 1019.4mb 60f 59f
7:50pm 12ft 19s 11s 2 4 mph 1019.3mb 60f 58f
6:50pm 11ft 21s 10s 2 4 mph 1019.9mb 60f 59f
5:50pm 11ft 14s 10s 2 4 mph 1019.7mb 60f 58f
4:50pm 9.5ft 13s 9s 4 7 mph 1019.8mb 60f 59f
3:50pm 10.5ft 14s 9s 4 7 mph 1019.8mb 60f 59f
2:50pm 9ft 14s 8s 4 7 mph 1019.4mb 61f 58f
1:50pm 9.5ft 13s 8s 2 4 mph 1019.3mb 61f 58f
12:50pm 8.5ft 11s 7s 11 13 mph 1019.5mb 61f 57f
11:50am 8ft 14s 7s 18 20 mph 1019.1mb 61f 60f
10:50am 7.5ft 13s 6s 22 25 mph 1019.7mb 61f 59f
9:50am 8ft 11s 7s 22 27 mph 1019.9mb 61f 59f
8:50am 7.5ft 13s 6s 22 27 mph 1019.7mb 61f 59f
7:50am 8.5ft 11s 7s 22 31 mph 1019mb 61f 59f
6:50am 7.5ft 12s 6s 25 29 mph 1018.5mb 61f 59f
5:50am 8ft 13s 7s 22 25 mph 1018.4mb 61f 59f
4:50am 7ft 12s 7s 18 22 mph 1019mb 61f 58f
3:50am 8ft 13s 7s 22 25 mph 1019.5mb 61f 59f
2:50am 7ft 13s 7s 22 25 mph 1019.5mb 61f 58f
1:50am 7.5ft 13s 7s 20 25 mph 1019.8mb 61f 58f
12:50am 6.5ft 12s 7s 18 27 mph 1020.1mb 61f 60f
Thu 12/18 11:50pm 7ft 14s 7s 20 25 mph 1020.3mb 61f 59f
10:50pm 7ft 14s 8s 16 18 mph 1020.3mb 61f 60f
9:50pm 7ft 11s 8s 16 20 mph 1020.3mb 61f 60f
8:50pm 8ft 12s 8s 16 20 mph 1020.1mb 61f 60f
7:50pm 8.5ft 11s 8s 16 18 mph 1019.9mb 61f 60f
6:50pm 9ft 13s 9s 13 16 mph 1019.8mb 61f 60f
5:50pm 9.5ft 12s 9s 16 18 mph 1019.6mb 60f 59f
4:50pm 9.5ft 14s 9s 13 16 mph 1019.7mb 60f 59f
3:50pm 11ft 13s 9s 13 18 mph 1019.5mb 60f 59f
2:50pm 11ft 13s 9s 13 18 mph 1019.6mb 60f 59f
1:50pm 10.5ft 12s 9s 16 18 mph 1019.3mb 60f 58f
12:50pm 11.5ft 13s 9s 16 20 mph 1020mb 60f 58f
11:50am 10.5ft 13s 9s 16 20 mph 1020.5mb 60f 58f
10:50am 10.5ft 13s 9s 13 20 mph 1021.2mb 60f 58f
9:50am 10ft 14s 9s 16 20 mph 1020.4mb 60f 58f
8:50am 10ft 14s 9s 16 18 mph 1019.5mb 60f 58f
7:50am 9ft 14s 8s 16 20 mph 1018.8mb 60f 57f
6:50am 8.5ft 14s 8s 18 20 mph 1018.1mb 60f 57f
5:50am 9.5ft 15s 8s 18 22 mph 1017.8mb 60f 57f
4:50am 9ft 15s 7s 16 20 mph 1017.3mb 60f 57f
3:50am 10ft 15s 7s 20 25 mph 1016.6mb 60f 57f
2:50am 10ft 15s 7s 20 27 mph 1016.6mb 60f 56f
1:50am 10.5ft 15s 7s 22 25 mph 1016.5mb 60f 56f
12:50am 11ft 15s 7s 25 29 mph 1016.2mb 60f 56f
Wed 12/17 11:50pm 10ft 14s 7s 13 18 mph 1016.3mb 60f 58f
10:50pm 10ft 15s 7s 25 31 mph 1016mb 60f 56f
9:50pm 10ft 15s 7s 27 34 mph 1015.6mb 60f 55f
8:50pm 10.5ft 15s 8s 25 31 mph 1015.7mb 60f 55f
7:50pm 9ft 11s 8s 22 29 mph 1015.9mb 60f 55f
6:50pm 9ft 11s 8s 22 27 mph 1015.7mb 60f 55f
5:50pm 10.5ft 11s 9s 18 22 mph 1016mb 60f 54f
4:50pm 12ft 11s 9s 18 22 mph 1015.8mb 60f 57f
3:50pm 10.5ft 12s 8s 13 16 mph 1016.1mb 60f 58f
2:50pm 12ft 10s 8s 13 18 mph 1015.6mb 60f 58f
1:50pm 12ft 11s 8s 11 13 mph 1015.9mb 60f 58f
12:50pm 12ft 11s 8s 9 13 mph 1016.8mb 60f 58f
11:50am 14ft 11s 9s 18 20 mph 1017.4mb 60f 57f
10:50am 13ft 11s 9s 9 13 mph 1018.1mb 60f 59f
9:50am 13.5ft 12s 9s 13 18 mph 1017.8mb 60f 59f
8:50am 14.5ft 12s 9s 11 13 mph 1016.6mb 60f 59f
7:50am 15ft 12s 9s 13 18 mph 1016mb 60f 59f
6:50am 15.5ft 12s 9s 11 13 mph 1015.2mb 60f 58f
5:50am 16ft 13s 9s 13 18 mph 1014.6mb 60f 59f
4:50am 15.5ft 13s 9s 13 18 mph 1014.2mb 60f 59f
3:50am 13ft 12s 9s 16 20 mph 1013.8mb 60f 59f
2:50am 12.5ft 11s 8s 18 22 mph 1013.9mb 60f 59f
1:50am 11.5ft 13s 8s 20 25 mph 1013.6mb 60f 59f
12:50am 10.5ft 13s 8s 18 22 mph 1013.3mb 60f 59f
Tue 12/16 11:50pm 10ft 13s 8s 22 25 mph 1013mb 60f 59f
10:50pm 9ft 13s 8s 20 25 mph 1012.7mb 60f 59f
9:50pm 9ft 14s 8s 22 29 mph 1011.8mb 60f 59f